Abingdon, VA

10:00 PM EDT on April 19, 2018 (GMT -0400)
Virginia Highlands

Weather History for KVJI - November, 2011

Change the Weather History Date:

Wednesday, November 30, 2011

  Actual Average (KTRI) Record (KTRI)
Temperature  
Mean Temperature 34 °F -  
Max Temperature 37 °F 51 °F 76 °F (1991)
Min Temperature 32 °F 31 °F 10 °F (1976)
Degree Days  
Heating Degree Days 30    
Moisture  
Dew Point 31 °F    
Average Humidity 86    
Maximum Humidity 93    
Minimum Humidity 75    
Precipitation  
Precipitation 0.02 in - - ()
Sea Level Pressure  
Sea Level Pressure 29.98 in    
Wind  
Wind Speed 9 mph (WNW)    
Max Wind Speed 13 mph    
Max Gust Speed 21 mph    
Visibility 9 miles    
Events Rain , Snow    
Averages and records for this station are not official NWS values.
T = Trace of Precipitation, MM = Missing Value Source: NWS Daily Summary

Daily Weather History Graph

Daily Weather History Graph

Search for Another Location

Airport or City:

Astronomy

Nov. 30, 2011 Rise Set
Actual Time 7:20 AM EST 5:12 PM EST
Civil Twilight 6:52 AM EST 5:40 PM EST
Nautical Twilight 6:20 AM EST 6:12 PM EST
Astronomical Twilight 5:49 AM EST 6:43 PM EST
Moon 11:42 AM EST (11/30) 11:03 PM EST (11/30)
Length of Visible Light 10h 48m
Length of Day
9h 51m
Waxing Crescent, 33% of the Moon is Illuminated
Nov 30
Waxing Crescent
Dec 2
First Quarter
Dec 10
Full
Dec 17
Last Quarter
Dec 24
New

Hourly Weather History & Observations

Time (EST) Temp. Windchill Dew Point Humidity Pressure Visibility Wind Dir Wind Speed Gust Speed Precip Events Conditions
12:15 AM 33.8 °F 25.3 °F 32.0 °F 93% 29.80 in 5.0 mi West 11.5 mph - N/A   Overcast
12:35 AM 33.8 °F 25.8 °F 32.0 °F 93% 29.81 in 5.0 mi West 10.4 mph 18.4 mph N/A   Overcast
12:55 AM 33.8 °F 25.8 °F 32.0 °F 93% 29.80 in 4.0 mi West 10.4 mph 18.4 mph N/A Snow Light Snow
1:15 AM 33.8 °F 25.8 °F 32.0 °F 93% 29.81 in 3.0 mi West 10.4 mph - N/A Snow Light Snow
1:35 AM 33.8 °F 25.8 °F 32.0 °F 93% 29.81 in 4.0 mi West 10.4 mph 18.4 mph N/A Snow Light Snow
1:55 AM 33.8 °F 25.3 °F 32.0 °F 93% 29.82 in 4.0 mi West 11.5 mph 20.7 mph N/A Snow Light Snow
2:15 AM 33.8 °F 24.8 °F 32.0 °F 93% 29.83 in 5.0 mi West 12.7 mph 17.3 mph N/A   Overcast
2:35 AM 33.8 °F 25.8 °F 32.0 °F 93% 29.84 in 5.0 mi West 10.4 mph - N/A Snow Light Snow
2:55 AM 33.8 °F 25.3 °F 32.0 °F 93% 29.84 in 5.0 mi West 11.5 mph - N/A Snow Light Snow
3:15 AM 33.8 °F 25.8 °F 32.0 °F 93% 29.85 in 10.0 mi West 10.4 mph 16.1 mph N/A   Overcast
3:35 AM 33.8 °F 24.8 °F 32.0 °F 93% 29.85 in 5.0 mi West 12.7 mph 17.3 mph N/A Snow Light Snow
3:55 AM 33.8 °F 26.4 °F 32.0 °F 93% 29.85 in 7.0 mi West 9.2 mph - N/A   Overcast
4:15 AM 33.8 °F 27.0 °F 32.0 °F 93% 29.86 in 7.0 mi West 8.1 mph - N/A Snow Light Snow
4:35 AM 33.8 °F 25.3 °F 32.0 °F 93% 29.87 in 7.0 mi West 11.5 mph 18.4 mph N/A   Overcast
4:55 AM 33.8 °F 25.3 °F 32.0 °F 93% 29.88 in 10.0 mi West 11.5 mph 20.7 mph N/A   Overcast
5:15 AM 33.8 °F 25.8 °F 32.0 °F 93% 29.89 in 10.0 mi WNW 10.4 mph - N/A   Overcast
5:35 AM 33.8 °F 25.8 °F 30.2 °F 87% 29.89 in 10.0 mi West 10.4 mph 19.6 mph N/A   Overcast
5:55 AM 33.8 °F 25.8 °F 30.2 °F 87% 29.90 in 10.0 mi West 10.4 mph 17.3 mph N/A   Overcast
6:15 AM 33.8 °F 25.8 °F 30.2 °F 87% 29.90 in 10.0 mi West 10.4 mph 16.1 mph N/A   Overcast
6:35 AM 33.8 °F 26.4 °F 32.0 °F 93% 29.91 in 10.0 mi West 9.2 mph 16.1 mph N/A   Overcast
6:55 AM 33.8 °F 27.0 °F 32.0 °F 93% 29.92 in 10.0 mi West 8.1 mph - N/A   Overcast
7:15 AM 33.8 °F 27.0 °F 32.0 °F 93% 29.92 in 10.0 mi West 8.1 mph - N/A   Overcast
7:35 AM 33.8 °F 26.4 °F 32.0 °F 93% 29.92 in 10.0 mi West 9.2 mph - N/A   Overcast
8:15 AM 33.8 °F 25.8 °F 32.0 °F 93% 29.95 in 10.0 mi West 10.4 mph - N/A   Overcast
8:35 AM 35.6 °F 29.2 °F 32.0 °F 87% 29.96 in 10.0 mi WNW 8.1 mph - N/A   Overcast
8:55 AM 35.6 °F 28.6 °F 32.0 °F 87% 29.97 in 10.0 mi West 9.2 mph - N/A   Overcast
9:15 AM 35.6 °F 29.9 °F 32.0 °F 87% 29.98 in 10.0 mi West 6.9 mph - N/A   Overcast
9:35 AM 35.6 °F 30.7 °F 32.0 °F 87% 29.98 in 10.0 mi WNW 5.8 mph - N/A   Overcast
10:15 AM 35.6 °F 30.7 °F 32.0 °F 87% 30.00 in 10.0 mi West 5.8 mph - N/A   Overcast
10:55 AM 37.4 °F 32.8 °F 32.0 °F 81% 30.00 in 10.0 mi WNW 5.8 mph - N/A   Overcast
11:15 AM 37.4 °F 31.4 °F 32.0 °F 81% 30.01 in 10.0 mi WNW 8.1 mph - N/A   Overcast
11:35 AM 37.4 °F 32.1 °F 32.0 °F 81% 30.00 in 10.0 mi NW 6.9 mph - N/A   Overcast
11:55 AM 37.4 °F 30.8 °F 32.0 °F 81% 30.00 in 10.0 mi West 9.2 mph - N/A   Overcast
12:55 PM 37.4 °F 32.1 °F 32.0 °F 81% 30.01 in 7.0 mi NNW 6.9 mph - N/A Rain Light Rain
1:55 PM 35.6 °F 29.9 °F 32.0 °F 87% 30.02 in 5.0 mi WNW 6.9 mph - 0.02 in Snow Light Snow
2:15 PM 37.4 °F 30.8 °F 33.8 °F 87% 30.03 in 10.0 mi NW 9.2 mph - N/A Rain Light Rain
2:35 PM 35.6 °F 29.9 °F 32.0 °F 87% 30.03 in 5.0 mi NNW 6.9 mph - N/A   Overcast
2:55 PM 35.6 °F 29.9 °F 32.0 °F 87% 30.04 in 5.0 mi WNW 6.9 mph - N/A   Light Drizzle
3:15 PM 37.4 °F 32.8 °F 32.0 °F 81% 30.04 in 10.0 mi WNW 5.8 mph - N/A   Overcast
3:35 PM 37.4 °F 32.1 °F 32.0 °F 81% 30.05 in 10.0 mi West 6.9 mph - N/A   Overcast
3:55 PM 37.4 °F 33.8 °F 32.0 °F 81% 30.06 in 10.0 mi WNW 4.6 mph - N/A   Overcast
4:15 PM 37.4 °F 31.4 °F 32.0 °F 81% 30.06 in 10.0 mi West 8.1 mph - N/A   Overcast
4:35 PM 37.4 °F 32.1 °F 30.2 °F 75% 30.07 in 10.0 mi West 6.9 mph - N/A   Overcast
4:55 PM 37.4 °F 32.8 °F 30.2 °F 75% 30.07 in 10.0 mi West 5.8 mph - N/A   Overcast
5:15 PM 35.6 °F 32.8 °F 30.2 °F 81% 30.08 in 10.0 mi West 3.5 mph - N/A   Overcast
5:35 PM 35.6 °F 29.9 °F 28.4 °F 75% 30.09 in 10.0 mi West 6.9 mph - N/A   Overcast
5:55 PM 35.6 °F 30.7 °F 28.4 °F 75% 30.09 in 10.0 mi West 5.8 mph - N/A   Overcast
6:15 PM 35.6 °F 30.7 °F 28.4 °F 75% 30.10 in 10.0 mi West 5.8 mph - N/A   Overcast
6:35 PM 35.6 °F 31.7 °F 28.4 °F 75% 30.11 in 10.0 mi West 4.6 mph - N/A   Overcast
6:55 PM 33.8 °F 30.8 °F 28.4 °F 81% 30.11 in 10.0 mi West 3.5 mph - N/A   Mostly Cloudy
7:15 PM 33.8 °F - 28.4 °F 81% 30.12 in 10.0 mi Calm Calm - N/A   Scattered Clouds
7:35 PM 33.8 °F - 26.6 °F 75% 30.12 in 10.0 mi Calm Calm - N/A   Clear
8:15 PM 33.8 °F 30.8 °F 26.6 °F 75% 30.14 in 10.0 mi NNW 3.5 mph - N/A   Clear
8:35 PM 32.0 °F 28.7 °F 26.6 °F 80% 30.15 in 10.0 mi NNW 3.5 mph - N/A   Mostly Cloudy
9:15 PM 33.8 °F 30.8 °F 26.6 °F 75% 30.17 in 10.0 mi NW 3.5 mph - N/A   Overcast
9:35 PM 33.8 °F - 26.6 °F 75% 30.17 in 10.0 mi Calm Calm - N/A   Overcast
9:55 PM 32.0 °F - 28.4 °F 87% 30.17 in 10.0 mi Calm Calm - N/A   Scattered Clouds
10:15 PM 32.0 °F - 28.4 °F 87% 30.18 in 10.0 mi Calm Calm - N/A   Clear
10:35 PM 32.0 °F - 28.4 °F 87% 30.17 in 10.0 mi Calm Calm - N/A   Clear
10:55 PM 32.0 °F - 26.6 °F 80% 30.17 in 7.0 mi Calm Calm - N/A   Clear
11:15 PM 30.2 °F - 26.6 °F 86% 30.18 in 10.0 mi Calm Calm - N/A   Clear
11:35 PM 30.2 °F - 26.6 °F 86% 30.18 in 10.0 mi Calm Calm - N/A   Clear
11:55 PM 30.2 °F - 26.6 °F 86% 30.18 in 10.0 mi Calm Calm - N/A   Clear